sensor_id;sensor_type;location;lat;lon;timestamp;pressure;altitude;pressure_sealevel;temperature;humidity
59791;BME280;47431;51.640;5.554;2022-12-31T00:01:03;94507.31;;;11.50;100.00
59791;BME280;47431;51.640;5.554;2022-12-31T00:03:28;94507.03;;;11.51;100.00
59791;BME280;47431;51.640;5.554;2022-12-31T00:05:53;94451.78;;;11.56;100.00
59791;BME280;47431;51.640;5.554;2022-12-31T00:08:19;94450.16;;;11.54;100.00
59791;BME280;47431;51.640;5.554;2022-12-31T00:10:44;94416.38;;;11.59;100.00
59791;BME280;47431;51.640;5.554;2022-12-31T00:13:11;94374.25;;;11.59;100.00
59791;BME280;47431;51.640;5.554;2022-12-31T00:15:38;94317.34;;;11.57;100.00
59791;BME280;47431;51.640;5.554;2022-12-31T00:18:04;94300.41;;;11.57;100.00
59791;BME280;47431;51.640;5.554;2022-12-31T00:20:29;94275.22;;;11.63;100.00
59791;BME280;47431;51.640;5.554;2022-12-31T00:22:55;94265.00;;;11.60;100.00
59791;BME280;47431;51.640;5.554;2022-12-31T00:25:20;94136.19;;;11.60;100.00
59791;BME280;47431;51.640;5.554;2022-12-31T00:27:46;94149.34;;;11.61;100.00
59791;BME280;47431;51.640;5.554;2022-12-31T00:30:11;94143.97;;;11.61;100.00
59791;BME280;47431;51.640;5.554;2022-12-31T00:32:37;94157.13;;;11.63;100.00
59791;BME280;47431;51.640;5.554;2022-12-31T00:35:02;94069.34;;;11.69;100.00
59791;BME280;47431;51.640;5.554;2022-12-31T00:37:28;94083.31;;;11.65;100.00
59791;BME280;47431;51.640;5.554;2022-12-31T00:39:53;94017.31;;;11.70;100.00
59791;BME280;47431;51.640;5.554;2022-12-31T00:42:19;93989.09;;;11.72;100.00
59791;BME280;47431;51.640;5.554;2022-12-31T00:44:44;93911.28;;;11.67;100.00
59791;BME280;47431;51.640;5.554;2022-12-31T00:47:09;93840.72;;;11.66;100.00
59791;BME280;47431;51.640;5.554;2022-12-31T00:49:35;93809.59;;;11.65;100.00
59791;BME280;47431;51.640;5.554;2022-12-31T00:52:00;93746.84;;;11.61;100.00
59791;BME280;47431;51.640;5.554;2022-12-31T00:54:25;93715.94;;;11.64;100.00
59791;BME280;47431;51.640;5.554;2022-12-31T00:56:51;93647.84;;;11.60;100.00
59791;BME280;47431;51.640;5.554;2022-12-31T00:59:16;93592.81;;;11.62;100.00
59791;BME280;47431;51.640;5.554;2022-12-31T01:01:41;93571.34;;;11.62;100.00
59791;BME280;47431;51.640;5.554;2022-12-31T01:04:19;93468.31;;;11.63;100.00
59791;BME280;47431;51.640;5.554;2022-12-31T01:06:45;93218.50;;;11.65;100.00
59791;BME280;47431;51.640;5.554;2022-12-31T01:09:12;93297.88;;;11.66;100.00
59791;BME280;47431;51.640;5.554;2022-12-31T01:11:38;93286.34;;;11.65;100.00
59791;BME280;47431;51.640;5.554;2022-12-31T01:14:13;93230.00;;;11.65;100.00
59791;BME280;47431;51.640;5.554;2022-12-31T01:16:44;93215.00;;;11.64;100.00
59791;BME280;47431;51.640;5.554;2022-12-31T01:19:14;93216.00;;;11.69;100.00
59791;BME280;47431;51.640;5.554;2022-12-31T01:21:41;93197.81;;;11.65;100.00
59791;BME280;47431;51.640;5.554;2022-12-31T01:24:08;93185.50;;;11.64;100.00
59791;BME280;47431;51.640;5.554;2022-12-31T01:26:34;93221.75;;;11.62;100.00
59791;BME280;47431;51.640;5.554;2022-12-31T01:28:59;93240.25;;;11.63;100.00
59791;BME280;47431;51.640;5.554;2022-12-31T01:31:25;93211.91;;;11.57;100.00
59791;BME280;47431;51.640;5.554;2022-12-31T01:33:51;93221.81;;;11.57;100.00
59791;BME280;47431;51.640;5.554;2022-12-31T01:36:20;93174.25;;;11.62;100.00
59791;BME280;47431;51.640;5.554;2022-12-31T01:38:46;93201.97;;;11.58;100.00
59791;BME280;47431;51.640;5.554;2022-12-31T01:41:20;93172.25;;;11.54;100.00
59791;BME280;47431;51.640;5.554;2022-12-31T01:51:53;93201.63;;;11.45;100.00
59791;BME280;47431;51.640;5.554;2022-12-31T01:54:23;93176.69;;;11.45;100.00
59791;BME280;47431;51.640;5.554;2022-12-31T01:56:52;93153.28;;;11.50;100.00
59791;BME280;47431;51.640;5.554;2022-12-31T01:59:19;93098.53;;;11.51;100.00
59791;BME280;47431;51.640;5.554;2022-12-31T02:01:45;93042.97;;;11.52;100.00
59791;BME280;47431;51.640;5.554;2022-12-31T02:04:13;93045.16;;;11.50;100.00
59791;BME280;47431;51.640;5.554;2022-12-31T02:06:49;93022.44;;;11.47;100.00
59791;BME280;47431;51.640;5.554;2022-12-31T02:09:16;92913.66;;;11.27;100.00
59791;BME280;47431;51.640;5.554;2022-12-31T02:11:41;92500.19;;;11.07;100.00
59791;BME280;47431;51.640;5.554;2022-12-31T02:14:19;92728.41;;;11.00;100.00
59791;BME280;47431;51.640;5.554;2022-12-31T02:19:55;92808.66;;;10.97;100.00
59791;BME280;47431;51.640;5.554;2022-12-31T02:28:18;92750.00;;;10.95;100.00
59791;BME280;47431;51.640;5.554;2022-12-31T02:30:49;92756.13;;;10.96;100.00
59791;BME280;47431;51.640;5.554;2022-12-31T02:33:23;92727.28;;;10.93;100.00
59791;BME280;47431;51.640;5.554;2022-12-31T02:36:01;92723.59;;;10.88;100.00
59791;BME280;47431;51.640;5.554;2022-12-31T02:38:33;92730.84;;;10.88;100.00
59791;BME280;47431;51.640;5.554;2022-12-31T02:41:00;92554.59;;;10.85;100.00
59791;BME280;47431;51.640;5.554;2022-12-31T02:43:26;92577.16;;;10.84;100.00
59791;BME280;47431;51.640;5.554;2022-12-31T02:46:03;92559.31;;;10.79;100.00
59791;BME280;47431;51.640;5.554;2022-12-31T02:49:01;92581.50;;;10.80;100.00
59791;BME280;47431;51.640;5.554;2022-12-31T02:54:18;92563.25;;;10.82;100.00
59791;BME280;47431;51.640;5.554;2022-12-31T02:56:56;92540.84;;;10.77;100.00
59791;BME280;47431;51.640;5.554;2022-12-31T02:59:57;92508.56;;;10.83;100.00
59791;BME280;47431;51.640;5.554;2022-12-31T03:02:43;92518.31;;;10.78;100.00
59791;BME280;47431;51.640;5.554;2022-12-31T03:05:12;92505.22;;;10.77;100.00
59791;BME280;47431;51.640;5.554;2022-12-31T03:07:40;92488.69;;;10.75;100.00
59791;BME280;47431;51.640;5.554;2022-12-31T03:10:06;92476.56;;;10.77;100.00
59791;BME280;47431;51.640;5.554;2022-12-31T03:12:33;92467.38;;;10.70;100.00
59791;BME280;47431;51.640;5.554;2022-12-31T03:20:36;92398.47;;;10.61;100.00
59791;BME280;47431;51.640;5.554;2022-12-31T03:23:32;92383.38;;;10.65;100.00
59791;BME280;47431;51.640;5.554;2022-12-31T03:25:59;92363.22;;;10.68;100.00
59791;BME280;47431;51.640;5.554;2022-12-31T03:28:27;92322.22;;;10.68;100.00
59791;BME280;47431;51.640;5.554;2022-12-31T03:30:58;92321.78;;;10.65;100.00
59791;BME280;47431;51.640;5.554;2022-12-31T03:33:24;92313.25;;;10.63;100.00
59791;BME280;47431;51.640;5.554;2022-12-31T03:35:51;92330.41;;;10.62;100.00
59791;BME280;47431;51.640;5.554;2022-12-31T03:38:17;92248.66;;;10.65;100.00
59791;BME280;47431;51.640;5.554;2022-12-31T03:40:49;92226.78;;;10.63;100.00
59791;BME280;47431;51.640;5.554;2022-12-31T03:43:15;92240.78;;;10.60;100.00
59791;BME280;47431;51.640;5.554;2022-12-31T03:45:41;92233.38;;;10.57;100.00
59791;BME280;47431;51.640;5.554;2022-12-31T03:48:07;92217.75;;;10.59;100.00
59791;BME280;47431;51.640;5.554;2022-12-31T03:50:36;92191.16;;;10.62;100.00
59791;BME280;47431;51.640;5.554;2022-12-31T03:53:01;92129.88;;;10.70;100.00
59791;BME280;47431;51.640;5.554;2022-12-31T03:55:27;92127.53;;;10.68;100.00
59791;BME280;47431;51.640;5.554;2022-12-31T03:57:52;92098.06;;;10.68;100.00
59791;BME280;47431;51.640;5.554;2022-12-31T04:00:20;92056.31;;;10.67;100.00
59791;BME280;47431;51.640;5.554;2022-12-31T04:02:46;92064.66;;;10.65;100.00
59791;BME280;47431;51.640;5.554;2022-12-31T04:05:11;92044.50;;;10.68;100.00
59791;BME280;47431;51.640;5.554;2022-12-31T04:07:37;92039.94;;;10.69;100.00
59791;BME280;47431;51.640;5.554;2022-12-31T04:10:05;92034.56;;;10.69;100.00
59791;BME280;47431;51.640;5.554;2022-12-31T04:12:30;92042.75;;;10.63;100.00
59791;BME280;47431;51.640;5.554;2022-12-31T04:14:56;92037.09;;;10.65;100.00
59791;BME280;47431;51.640;5.554;2022-12-31T04:17:22;92034.72;;;10.63;100.00
59791;BME280;47431;51.640;5.554;2022-12-31T04:19:48;92034.28;;;10.61;100.00
59791;BME280;47431;51.640;5.554;2022-12-31T04:22:13;92029.69;;;10.62;100.00
59791;BME280;47431;51.640;5.554;2022-12-31T04:24:38;92025.13;;;10.62;100.00
59791;BME280;47431;51.640;5.554;2022-12-31T04:27:04;92016.16;;;10.58;100.00
59791;BME280;47431;51.640;5.554;2022-12-31T04:29:29;92016.59;;;10.60;100.00
59791;BME280;47431;51.640;5.554;2022-12-31T04:31:54;91964.16;;;10.59;100.00
59791;BME280;47431;51.640;5.554;2022-12-31T04:34:19;91924.63;;;10.56;100.00
59791;BME280;47431;51.640;5.554;2022-12-31T04:36:45;91915.03;;;10.55;100.00
59791;BME280;47431;51.640;5.554;2022-12-31T04:39:10;91874.88;;;10.55;100.00
59791;BME280;47431;51.640;5.554;2022-12-31T04:41:35;91857.69;;;10.56;100.00
59791;BME280;47431;51.640;5.554;2022-12-31T04:44:01;91840.06;;;10.55;100.00
59791;BME280;47431;51.640;5.554;2022-12-31T04:46:28;91814.53;;;10.58;100.00
59791;BME280;47431;51.640;5.554;2022-12-31T04:48:55;91827.78;;;10.54;100.00
59791;BME280;47431;51.640;5.554;2022-12-31T04:51:21;91822.44;;;10.54;100.00
59791;BME280;47431;51.640;5.554;2022-12-31T04:53:46;91783.03;;;10.55;100.00
59791;BME280;47431;51.640;5.554;2022-12-31T04:56:12;91789.03;;;10.51;100.00
59791;BME280;47431;51.640;5.554;2022-12-31T04:58:38;91770.28;;;10.51;100.00
59791;BME280;47431;51.640;5.554;2022-12-31T05:01:04;91711.88;;;10.53;100.00
59791;BME280;47431;51.640;5.554;2022-12-31T05:03:29;91868.28;;;10.52;100.00
59791;BME280;47431;51.640;5.554;2022-12-31T05:06:05;91851.09;;;10.53;100.00
59791;BME280;47431;51.640;5.554;2022-12-31T05:08:31;91781.78;;;10.52;100.00
59791;BME280;47431;51.640;5.554;2022-12-31T05:10:57;91875.50;;;10.52;100.00
59791;BME280;47431;51.640;5.554;2022-12-31T05:13:23;91775.66;;;10.51;100.00
59791;BME280;47431;51.640;5.554;2022-12-31T05:15:48;91662.38;;;10.60;100.00
59791;BME280;47431;51.640;5.554;2022-12-31T05:18:35;91593.66;;;10.64;100.00
59791;BME280;47431;51.640;5.554;2022-12-31T05:21:04;91574.94;;;10.64;100.00
59791;BME280;47431;51.640;5.554;2022-12-31T05:23:30;91569.25;;;10.65;100.00
59791;BME280;47431;51.640;5.554;2022-12-31T05:25:55;91550.84;;;10.64;100.00
59791;BME280;47431;51.640;5.554;2022-12-31T05:28:21;91516.13;;;10.68;100.00
59791;BME280;47431;51.640;5.554;2022-12-31T05:30:48;91524.94;;;10.68;100.00
59791;BME280;47431;51.640;5.554;2022-12-31T05:33:14;91528.34;;;10.77;100.00
59791;BME280;47431;51.640;5.554;2022-12-31T05:35:39;91536.16;;;10.83;100.00
59791;BME280;47431;51.640;5.554;2022-12-31T05:38:04;91526.56;;;10.82;100.00
59791;BME280;47431;51.640;5.554;2022-12-31T05:40:30;91537.59;;;10.80;100.00
59791;BME280;47431;51.640;5.554;2022-12-31T05:42:55;91526.09;;;10.80;100.00
59791;BME280;47431;51.640;5.554;2022-12-31T05:45:21;91541.84;;;10.81;100.00
59791;BME280;47431;51.640;5.554;2022-12-31T05:47:46;91538.06;;;10.82;100.00
59791;BME280;47431;51.640;5.554;2022-12-31T05:50:16;91548.00;;;10.82;100.00
59791;BME280;47431;51.640;5.554;2022-12-31T05:52:43;91533.81;;;10.81;100.00
59791;BME280;47431;51.640;5.554;2022-12-31T05:55:12;91487.19;;;10.95;100.00
59791;BME280;47431;51.640;5.554;2022-12-31T05:57:37;91375.81;;;11.31;99.70
59791;BME280;47431;51.640;5.554;2022-12-31T06:00:05;91342.53;;;11.32;99.66
59791;BME280;47431;51.640;5.554;2022-12-31T06:02:30;91292.53;;;11.52;99.42
59791;BME280;47431;51.640;5.554;2022-12-31T06:04:56;91227.47;;;11.68;99.15
59791;BME280;47431;51.640;5.554;2022-12-31T06:07:21;91204.19;;;11.72;99.13
59791;BME280;47431;51.640;5.554;2022-12-31T06:09:46;91140.34;;;11.78;99.08
59791;BME280;47431;51.640;5.554;2022-12-31T06:12:12;91102.00;;;11.77;99.01
59791;BME280;47431;51.640;5.554;2022-12-31T06:14:37;91044.81;;;11.73;99.26
59791;BME280;47431;51.640;5.554;2022-12-31T06:17:02;91119.13;;;11.73;99.00
59791;BME280;47431;51.640;5.554;2022-12-31T06:19:28;91093.38;;;11.84;98.87
59791;BME280;47431;51.640;5.554;2022-12-31T06:21:53;90983.84;;;12.06;98.74
59791;BME280;47431;51.640;5.554;2022-12-31T06:24:18;90889.22;;;12.29;98.43
59791;BME280;47431;51.640;5.554;2022-12-31T06:26:44;90878.50;;;12.29;98.39
59791;BME280;47431;51.640;5.554;2022-12-31T06:29:09;90791.00;;;12.48;98.17
59791;BME280;47431;51.640;5.554;2022-12-31T06:31:35;90789.88;;;12.49;98.15
59791;BME280;47431;51.640;5.554;2022-12-31T06:34:01;90730.91;;;12.56;98.03
59791;BME280;47431;51.640;5.554;2022-12-31T06:36:27;90694.56;;;12.62;97.99
59791;BME280;47431;51.640;5.554;2022-12-31T06:38:52;90617.19;;;12.72;97.87
59791;BME280;47431;51.640;5.554;2022-12-31T06:41:18;90603.34;;;12.70;97.88
59791;BME280;47431;51.640;5.554;2022-12-31T06:43:44;90571.91;;;12.74;97.86
59791;BME280;47431;51.640;5.554;2022-12-31T06:46:11;90518.69;;;12.83;97.77
59791;BME280;47431;51.640;5.554;2022-12-31T06:48:37;90486.19;;;12.96;97.66
59791;BME280;47431;51.640;5.554;2022-12-31T06:51:05;90344.38;;;13.23;97.40
59791;BME280;47431;51.640;5.554;2022-12-31T06:53:31;90227.06;;;13.60;97.13
59791;BME280;47431;51.640;5.554;2022-12-31T06:55:57;90167.94;;;13.78;97.19
59791;BME280;47431;51.640;5.554;2022-12-31T06:58:23;90125.25;;;13.62;97.81
59791;BME280;47431;51.640;5.554;2022-12-31T07:03:48;89892.34;;;13.90;99.40
59791;BME280;47431;51.640;5.554;2022-12-31T07:06:29;89817.78;;;14.02;100.00
59791;BME280;47431;51.640;5.554;2022-12-31T07:09:08;89827.78;;;13.90;100.00
59791;BME280;47431;51.640;5.554;2022-12-31T07:14:47;89772.06;;;13.94;100.00
59791;BME280;47431;51.640;5.554;2022-12-31T07:17:40;90162.38;;;13.24;100.00
59791;BME280;47431;51.640;5.554;2022-12-31T07:20:11;90421.00;;;13.02;100.00
59791;BME280;47431;51.640;5.554;2022-12-31T07:22:38;90526.88;;;12.94;100.00
59791;BME280;47431;51.640;5.554;2022-12-31T07:25:04;90585.88;;;12.87;100.00
59791;BME280;47431;51.640;5.554;2022-12-31T07:30:12;90566.91;;;13.03;100.00
59791;BME280;47431;51.640;5.554;2022-12-31T07:33:03;90439.63;;;13.26;100.00
59791;BME280;47431;51.640;5.554;2022-12-31T07:38:10;90278.16;;;13.60;100.00
59791;BME280;47431;51.640;5.554;2022-12-31T07:48:49;90204.03;;;13.70;100.00
59791;BME280;47431;51.640;5.554;2022-12-31T07:51:14;90249.03;;;13.77;100.00
59791;BME280;47431;51.640;5.554;2022-12-31T07:53:40;90388.44;;;13.60;100.00
59791;BME280;47431;51.640;5.554;2022-12-31T07:56:07;90484.47;;;13.60;100.00
59791;BME280;47431;51.640;5.554;2022-12-31T08:01:08;90649.91;;;13.46;100.00
59791;BME280;47431;51.640;5.554;2022-12-31T08:03:50;90803.03;;;13.35;100.00
59791;BME280;47431;51.640;5.554;2022-12-31T08:06:37;90902.16;;;13.37;100.00
59791;BME280;47431;51.640;5.554;2022-12-31T08:11:55;91091.47;;;13.32;100.00
59791;BME280;47431;51.640;5.554;2022-12-31T08:14:21;91169.47;;;13.36;100.00
59791;BME280;47431;51.640;5.554;2022-12-31T08:16:47;91302.56;;;13.26;100.00
59791;BME280;47431;51.640;5.554;2022-12-31T08:19:24;91359.13;;;13.29;100.00
59791;BME280;47431;51.640;5.554;2022-12-31T08:21:57;91442.91;;;13.31;100.00
59791;BME280;47431;51.640;5.554;2022-12-31T08:29:50;91427.84;;;13.79;100.00
59791;BME280;47431;51.640;5.554;2022-12-31T08:37:32;91683.88;;;13.93;100.00
59791;BME280;47431;51.640;5.554;2022-12-31T08:43:34;91808.97;;;14.12;100.00
59791;BME280;47431;51.640;5.554;2022-12-31T08:46:05;91915.56;;;14.13;100.00
59791;BME280;47431;51.640;5.554;2022-12-31T08:48:39;92048.25;;;14.26;100.00
59791;BME280;47431;51.640;5.554;2022-12-31T08:51:22;92173.84;;;14.31;100.00
59791;BME280;47431;51.640;5.554;2022-12-31T08:53:48;92322.34;;;14.29;100.00
59791;BME280;47431;51.640;5.554;2022-12-31T08:56:35;92802.16;;;13.22;100.00
59791;BME280;47431;51.640;5.554;2022-12-31T09:01:54;93073.44;;;13.46;100.00
59791;BME280;47431;51.640;5.554;2022-12-31T09:07:04;93208.06;;;13.78;100.00
59791;BME280;47431;51.640;5.554;2022-12-31T09:18:19;93406.59;;;14.09;100.00
59791;BME280;47431;51.640;5.554;2022-12-31T09:20:45;93262.84;;;14.28;100.00
59791;BME280;47431;51.640;5.554;2022-12-31T09:23:28;93378.38;;;14.06;100.00
59791;BME280;47431;51.640;5.554;2022-12-31T09:26:18;93411.88;;;14.14;100.00
59791;BME280;47431;51.640;5.554;2022-12-31T09:29:03;93501.34;;;14.11;100.00
59791;BME280;47431;51.640;5.554;2022-12-31T09:31:50;93596.66;;;14.15;100.00
59791;BME280;47431;51.640;5.554;2022-12-31T09:34:21;93811.56;;;13.66;100.00
59791;BME280;47431;51.640;5.554;2022-12-31T09:36:55;94012.03;;;13.19;100.00
59791;BME280;47431;51.640;5.554;2022-12-31T09:39:40;94178.69;;;13.00;100.00
59791;BME280;47431;51.640;5.554;2022-12-31T10:00:56;94184.31;;;13.44;100.00
59791;BME280;47431;51.640;5.554;2022-12-31T10:19:46;94212.84;;;13.50;100.00
59791;BME280;47431;51.640;5.554;2022-12-31T10:22:52;94236.47;;;13.53;100.00
59791;BME280;47431;51.640;5.554;2022-12-31T10:25:31;94273.91;;;13.44;100.00
59791;BME280;47431;51.640;5.554;2022-12-31T10:30:47;94288.44;;;13.49;100.00
59791;BME280;47431;51.640;5.554;2022-12-31T10:36:17;94231.19;;;13.78;100.00
59791;BME280;47431;51.640;5.554;2022-12-31T10:44:23;94254.72;;;13.97;100.00
59791;BME280;47431;51.640;5.554;2022-12-31T10:47:32;94277.63;;;13.99;100.00
59791;BME280;47431;51.640;5.554;2022-12-31T11:09:33;94877.78;;;14.86;100.00
59791;BME280;47431;51.640;5.554;2022-12-31T11:12:34;95067.16;;;14.82;100.00
59791;BME280;47431;51.640;5.554;2022-12-31T11:40:23;97381.16;;;15.12;100.00
59791;BME280;47431;51.640;5.554;2022-12-31T11:42:58;97549.00;;;15.29;100.00
59791;BME280;47431;51.640;5.554;2022-12-31T11:45:50;97797.69;;;15.14;100.00
59791;BME280;47431;51.640;5.554;2022-12-31T11:54:18;98048.19;;;15.05;100.00
59791;BME280;47431;51.640;5.554;2022-12-31T11:57:03;98173.22;;;14.62;100.00
59791;BME280;47431;51.640;5.554;2022-12-31T11:59:32;98177.91;;;14.53;100.00
59791;BME280;47431;51.640;5.554;2022-12-31T12:02:03;98204.69;;;14.55;100.00
59791;BME280;47431;51.640;5.554;2022-12-31T12:04:40;98208.09;;;14.42;100.00
59791;BME280;47431;51.640;5.554;2022-12-31T12:07:13;98190.34;;;14.54;100.00
59791;BME280;47431;51.640;5.554;2022-12-31T12:09:40;98205.41;;;14.64;100.00
59791;BME280;47431;51.640;5.554;2022-12-31T12:12:06;98267.53;;;14.33;100.00
59791;BME280;47431;51.640;5.554;2022-12-31T12:14:40;98232.81;;;14.30;100.00
59791;BME280;47431;51.640;5.554;2022-12-31T12:17:14;98217.22;;;14.11;100.00
59791;BME280;47431;51.640;5.554;2022-12-31T12:19:46;98215.19;;;13.98;100.00
59791;BME280;47431;51.640;5.554;2022-12-31T12:22:22;98181.25;;;13.73;100.00
59791;BME280;47431;51.640;5.554;2022-12-31T12:25:06;98105.41;;;13.61;100.00
59791;BME280;47431;51.640;5.554;2022-12-31T12:27:38;98024.53;;;13.76;100.00
59791;BME280;47431;51.640;5.554;2022-12-31T12:30:23;97993.81;;;13.71;100.00
59791;BME280;47431;51.640;5.554;2022-12-31T12:32:57;97983.22;;;13.54;100.00
59791;BME280;47431;51.640;5.554;2022-12-31T12:35:34;97913.66;;;13.42;100.00
59791;BME280;47431;51.640;5.554;2022-12-31T12:38:02;97861.56;;;13.50;100.00
59791;BME280;47431;51.640;5.554;2022-12-31T12:40:29;97813.66;;;13.74;100.00
59791;BME280;47431;51.640;5.554;2022-12-31T12:42:55;97774.47;;;13.72;100.00
59791;BME280;47431;51.640;5.554;2022-12-31T12:45:24;97762.03;;;13.71;100.00
59791;BME280;47431;51.640;5.554;2022-12-31T12:47:55;97755.81;;;13.70;100.00
59791;BME280;47431;51.640;5.554;2022-12-31T12:50:24;97728.63;;;13.65;100.00
59791;BME280;47431;51.640;5.554;2022-12-31T12:53:03;97694.31;;;13.80;100.00
59791;BME280;47431;51.640;5.554;2022-12-31T13:07:50;97787.59;;;14.39;100.00
59791;BME280;47431;51.640;5.554;2022-12-31T13:24:10;98189.28;;;14.70;100.00
59791;BME280;47431;51.640;5.554;2022-12-31T13:26:47;98268.78;;;14.83;100.00
59791;BME280;47431;51.640;5.554;2022-12-31T13:29:19;98361.81;;;14.80;100.00
59791;BME280;47431;51.640;5.554;2022-12-31T13:31:47;98438.72;;;14.85;100.00
59791;BME280;47431;51.640;5.554;2022-12-31T13:34:20;98502.66;;;14.84;100.00
59791;BME280;47431;51.640;5.554;2022-12-31T13:36:50;98602.69;;;14.91;100.00
59791;BME280;47431;51.640;5.554;2022-12-31T13:39:24;98687.75;;;14.87;100.00
59791;BME280;47431;51.640;5.554;2022-12-31T13:41:56;98775.69;;;14.89;100.00
59791;BME280;47431;51.640;5.554;2022-12-31T13:44:28;98866.06;;;15.10;100.00
59791;BME280;47431;51.640;5.554;2022-12-31T13:47:03;98975.50;;;14.98;100.00
59791;BME280;47431;51.640;5.554;2022-12-31T13:49:42;99010.09;;;15.02;100.00
59791;BME280;47431;51.640;5.554;2022-12-31T13:52:39;99089.59;;;15.16;100.00
59791;BME280;47431;51.640;5.554;2022-12-31T14:00:19;99261.81;;;14.89;100.00
59791;BME280;47431;51.640;5.554;2022-12-31T14:03:08;99289.34;;;14.93;100.00
59791;BME280;47431;51.640;5.554;2022-12-31T14:08:10;99331.72;;;15.01;100.00
59791;BME280;47431;51.640;5.554;2022-12-31T14:10:50;99410.78;;;15.19;100.00
59791;BME280;47431;51.640;5.554;2022-12-31T14:18:50;99511.06;;;15.08;100.00
59791;BME280;47431;51.640;5.554;2022-12-31T14:21:30;99519.66;;;15.03;100.00
59791;BME280;47431;51.640;5.554;2022-12-31T14:24:11;99545.88;;;15.11;100.00
59791;BME280;47431;51.640;5.554;2022-12-31T14:26:42;99553.28;;;15.09;100.00
59791;BME280;47431;51.640;5.554;2022-12-31T14:32:24;99563.34;;;14.99;100.00
59791;BME280;47431;51.640;5.554;2022-12-31T14:37:21;99594.94;;;14.98;100.00
59791;BME280;47431;51.640;5.554;2022-12-31T14:51:11;99625.50;;;14.99;100.00
59791;BME280;47431;51.640;5.554;2022-12-31T14:53:37;99610.41;;;14.88;100.00
59791;BME280;47431;51.640;5.554;2022-12-31T14:56:05;99602.06;;;14.81;100.00
59791;BME280;47431;51.640;5.554;2022-12-31T14:58:39;99591.09;;;14.82;100.00
59791;BME280;47431;51.640;5.554;2022-12-31T15:01:27;99578.94;;;14.78;100.00
59791;BME280;47431;51.640;5.554;2022-12-31T15:03:54;99592.72;;;14.93;100.00
59791;BME280;47431;51.640;5.554;2022-12-31T15:14:41;99642.34;;;14.92;100.00
59791;BME280;47431;51.640;5.554;2022-12-31T15:22:44;99628.81;;;14.74;100.00
59791;BME280;47431;51.640;5.554;2022-12-31T15:27:58;99619.50;;;14.68;100.00
59791;BME280;47431;51.640;5.554;2022-12-31T15:30:37;99616.72;;;14.78;100.00
59791;BME280;47431;51.640;5.554;2022-12-31T15:33:30;99617.28;;;14.82;100.00
59791;BME280;47431;51.640;5.554;2022-12-31T15:35:55;99633.81;;;14.79;100.00
59791;BME280;47431;51.640;5.554;2022-12-31T15:38:34;99640.09;;;14.69;100.00
59791;BME280;47431;51.640;5.554;2022-12-31T15:44:11;99643.81;;;14.68;100.00
59791;BME280;47431;51.640;5.554;2022-12-31T15:46:40;99659.16;;;14.68;100.00
59791;BME280;47431;51.640;5.554;2022-12-31T15:49:14;99662.91;;;14.75;100.00
59791;BME280;47431;51.640;5.554;2022-12-31T15:52:01;99690.09;;;14.74;100.00
59791;BME280;47431;51.640;5.554;2022-12-31T15:54:36;99695.94;;;14.69;100.00
59791;BME280;47431;51.640;5.554;2022-12-31T15:57:03;99725.34;;;14.72;100.00
59791;BME280;47431;51.640;5.554;2022-12-31T15:59:30;99727.09;;;14.63;100.00
59791;BME280;47431;51.640;5.554;2022-12-31T16:01:56;99725.56;;;14.61;100.00
59791;BME280;47431;51.640;5.554;2022-12-31T16:04:25;99734.06;;;14.66;100.00
59791;BME280;47431;51.640;5.554;2022-12-31T16:06:51;99740.59;;;14.63;100.00
59791;BME280;47431;51.640;5.554;2022-12-31T16:09:28;99752.13;;;14.65;100.00
59791;BME280;47431;51.640;5.554;2022-12-31T16:11:55;99760.53;;;14.62;100.00
59791;BME280;47431;51.640;5.554;2022-12-31T16:16:56;99759.81;;;14.60;100.00
59791;BME280;47431;51.640;5.554;2022-12-31T16:19:29;99785.72;;;14.53;100.00
59791;BME280;47431;51.640;5.554;2022-12-31T16:21:56;99766.28;;;14.49;100.00
59791;BME280;47431;51.640;5.554;2022-12-31T16:24:28;99741.28;;;14.47;100.00
59791;BME280;47431;51.640;5.554;2022-12-31T16:26:58;99756.31;;;14.50;100.00
59791;BME280;47431;51.640;5.554;2022-12-31T16:29:24;99774.28;;;14.41;100.00
59791;BME280;47431;51.640;5.554;2022-12-31T16:31:51;99773.19;;;14.33;100.00
59791;BME280;47431;51.640;5.554;2022-12-31T16:34:25;99763.38;;;14.32;100.00
59791;BME280;47431;51.640;5.554;2022-12-31T16:39:25;99757.63;;;14.45;100.00
59791;BME280;47431;51.640;5.554;2022-12-31T16:41:52;99772.72;;;14.38;100.00
59791;BME280;47431;51.640;5.554;2022-12-31T16:44:25;99773.19;;;14.33;100.00
59791;BME280;47431;51.640;5.554;2022-12-31T16:46:54;99779.13;;;14.37;100.00
59791;BME280;47431;51.640;5.554;2022-12-31T16:49:21;99792.69;;;14.27;100.00
59791;BME280;47431;51.640;5.554;2022-12-31T16:51:47;99789.34;;;14.15;100.00
59791;BME280;47431;51.640;5.554;2022-12-31T16:54:26;99771.56;;;14.13;100.00
59791;BME280;47431;51.640;5.554;2022-12-31T16:56:52;99759.50;;;14.17;100.00
59791;BME280;47431;51.640;5.554;2022-12-31T16:59:23;99756.09;;;14.15;100.00
59791;BME280;47431;51.640;5.554;2022-12-31T17:01:50;99751.28;;;14.08;100.00
59791;BME280;47431;51.640;5.554;2022-12-31T17:04:18;99752.88;;;14.01;100.00
59791;BME280;47431;51.640;5.554;2022-12-31T17:06:44;99744.94;;;14.00;100.00
59791;BME280;47431;51.640;5.554;2022-12-31T17:09:12;99739.16;;;13.94;100.00
59791;BME280;47431;51.640;5.554;2022-12-31T17:11:54;99726.47;;;14.05;100.00
59791;BME280;47431;51.640;5.554;2022-12-31T17:14:28;99755.47;;;13.93;100.00
59791;BME280;47431;51.640;5.554;2022-12-31T17:19:33;99752.69;;;13.75;100.00
59791;BME280;47431;51.640;5.554;2022-12-31T17:21:59;99753.13;;;13.70;100.00
59791;BME280;47431;51.640;5.554;2022-12-31T17:24:25;99745.03;;;13.70;100.00
59791;BME280;47431;51.640;5.554;2022-12-31T17:26:51;99735.50;;;13.86;100.00